sensor_id;sensor_type;location;lat;lon;timestamp;P1;durP1;ratioP1;P2;durP2;ratioP2
80732;SDS011;70130;44.534;18.678;2024-01-10T00:00:19;145.53;;;50.67;;
80732;SDS011;70130;44.534;18.678;2024-01-10T00:02:54;120.10;;;44.43;;
80732;SDS011;70130;44.534;18.678;2024-01-10T00:05:19;123.00;;;47.50;;
80732;SDS011;70130;44.534;18.678;2024-01-10T00:07:45;136.33;;;49.37;;
80732;SDS011;70130;44.534;18.678;2024-01-10T00:10:11;142.47;;;51.37;;
80732;SDS011;70130;44.534;18.678;2024-01-10T00:12:52;159.67;;;58.67;;
80732;SDS011;70130;44.534;18.678;2024-01-10T00:15:17;140.63;;;54.35;;
80732;SDS011;70130;44.534;18.678;2024-01-10T00:17:43;135.43;;;50.80;;
80732;SDS011;70130;44.534;18.678;2024-01-10T00:20:11;118.73;;;49.53;;
80732;SDS011;70130;44.534;18.678;2024-01-10T00:22:37;108.37;;;43.33;;
80732;SDS011;70130;44.534;18.678;2024-01-10T00:25:02;108.73;;;41.57;;
80732;SDS011;70130;44.534;18.678;2024-01-10T00:27:28;105.23;;;41.53;;
80732;SDS011;70130;44.534;18.678;2024-01-10T00:29:54;113.53;;;42.10;;
80732;SDS011;70130;44.534;18.678;2024-01-10T00:32:24;111.43;;;42.10;;
80732;SDS011;70130;44.534;18.678;2024-01-10T00:34:50;113.60;;;40.27;;
80732;SDS011;70130;44.534;18.678;2024-01-10T00:37:16;119.10;;;45.03;;
80732;SDS011;70130;44.534;18.678;2024-01-10T00:39:41;121.40;;;45.03;;
80732;SDS011;70130;44.534;18.678;2024-01-10T00:42:07;132.67;;;53.47;;
80732;SDS011;70130;44.534;18.678;2024-01-10T00:44:32;138.80;;;53.53;;
80732;SDS011;70130;44.534;18.678;2024-01-10T00:46:58;148.20;;;55.00;;
80732;SDS011;70130;44.534;18.678;2024-01-10T00:49:24;137.17;;;57.87;;
80732;SDS011;70130;44.534;18.678;2024-01-10T00:51:49;141.03;;;57.50;;
80732;SDS011;70130;44.534;18.678;2024-01-10T00:54:15;143.00;;;55.00;;
80732;SDS011;70130;44.534;18.678;2024-01-10T00:56:42;136.93;;;54.90;;
80732;SDS011;70130;44.534;18.678;2024-01-10T00:59:07;109.97;;;44.53;;
80732;SDS011;70130;44.534;18.678;2024-01-10T01:01:33;115.97;;;45.27;;
80732;SDS011;70130;44.534;18.678;2024-01-10T01:03:58;110.90;;;42.53;;
80732;SDS011;70130;44.534;18.678;2024-01-10T01:06:24;109.47;;;41.70;;
80732;SDS011;70130;44.534;18.678;2024-01-10T01:08:52;108.97;;;40.80;;
80732;SDS011;70130;44.534;18.678;2024-01-10T01:11:18;101.03;;;39.10;;
80732;SDS011;70130;44.534;18.678;2024-01-10T01:13:47;92.23;;;37.33;;
80732;SDS011;70130;44.534;18.678;2024-01-10T01:16:13;93.25;;;36.75;;
80732;SDS011;70130;44.534;18.678;2024-01-10T01:18:39;97.90;;;38.47;;
80732;SDS011;70130;44.534;18.678;2024-01-10T01:21:23;98.90;;;37.33;;
80732;SDS011;70130;44.534;18.678;2024-01-10T01:24:00;95.63;;;38.00;;
80732;SDS011;70130;44.534;18.678;2024-01-10T01:30:24;97.43;;;38.40;;
80732;SDS011;70130;44.534;18.678;2024-01-10T01:32:52;100.13;;;39.83;;
80732;SDS011;70130;44.534;18.678;2024-01-10T01:35:18;100.90;;;40.47;;
80732;SDS011;70130;44.534;18.678;2024-01-10T01:40:31;89.33;;;37.23;;
80732;SDS011;70130;44.534;18.678;2024-01-10T01:42:56;78.47;;;28.13;;
80732;SDS011;70130;44.534;18.678;2024-01-10T01:45:25;68.90;;;28.43;;
80732;SDS011;70130;44.534;18.678;2024-01-10T01:47:50;81.40;;;32.27;;
80732;SDS011;70130;44.534;18.678;2024-01-10T01:50:19;99.27;;;38.27;;
80732;SDS011;70130;44.534;18.678;2024-01-10T01:52:57;97.67;;;40.47;;
80732;SDS011;70130;44.534;18.678;2024-01-10T01:55:25;98.23;;;37.93;;
80732;SDS011;70130;44.534;18.678;2024-01-10T01:57:51;92.17;;;36.33;;
80732;SDS011;70130;44.534;18.678;2024-01-10T02:00:20;91.93;;;36.57;;
80732;SDS011;70130;44.534;18.678;2024-01-10T02:02:51;86.77;;;35.67;;
80732;SDS011;70130;44.534;18.678;2024-01-10T02:05:22;93.87;;;36.67;;
80732;SDS011;70130;44.534;18.678;2024-01-10T02:10:35;80.83;;;32.97;;
80732;SDS011;70130;44.534;18.678;2024-01-10T02:13:04;82.20;;;34.63;;
80732;SDS011;70130;44.534;18.678;2024-01-10T02:15:34;94.90;;;36.15;;
80732;SDS011;70130;44.534;18.678;2024-01-10T02:18:04;87.43;;;35.40;;
80732;SDS011;70130;44.534;18.678;2024-01-10T02:20:33;85.80;;;37.20;;
80732;SDS011;70130;44.534;18.678;2024-01-10T02:22:59;90.93;;;37.50;;
80732;SDS011;70130;44.534;18.678;2024-01-10T02:25:28;86.20;;;33.27;;
80732;SDS011;70130;44.534;18.678;2024-01-10T02:28:05;86.33;;;31.60;;
80732;SDS011;70130;44.534;18.678;2024-01-10T02:30:35;82.90;;;31.53;;
80732;SDS011;70130;44.534;18.678;2024-01-10T02:33:04;78.37;;;30.50;;
80732;SDS011;70130;44.534;18.678;2024-01-10T02:35:29;73.57;;;27.43;;
80732;SDS011;70130;44.534;18.678;2024-01-10T02:37:58;73.90;;;30.13;;
80732;SDS011;70130;44.534;18.678;2024-01-10T02:40:36;73.83;;;28.10;;
80732;SDS011;70130;44.534;18.678;2024-01-10T02:43:05;61.20;;;24.97;;
80732;SDS011;70130;44.534;18.678;2024-01-10T02:45:35;63.88;;;27.02;;
80732;SDS011;70130;44.534;18.678;2024-01-10T02:48:04;75.80;;;31.00;;
80732;SDS011;70130;44.534;18.678;2024-01-10T02:50:30;66.10;;;28.37;;
80732;SDS011;70130;44.534;18.678;2024-01-10T02:52:58;80.07;;;28.67;;
80732;SDS011;70130;44.534;18.678;2024-01-10T02:55:36;71.20;;;28.97;;
80732;SDS011;70130;44.534;18.678;2024-01-10T03:01:02;72.67;;;26.90;;
80732;SDS011;70130;44.534;18.678;2024-01-10T03:03:31;57.73;;;22.60;;
80732;SDS011;70130;44.534;18.678;2024-01-10T03:06:03;63.97;;;25.30;;
80732;SDS011;70130;44.534;18.678;2024-01-10T03:08:31;65.03;;;25.50;;
80732;SDS011;70130;44.534;18.678;2024-01-10T03:10:57;56.17;;;25.40;;
80732;SDS011;70130;44.534;18.678;2024-01-10T03:13:25;62.40;;;25.90;;
80732;SDS011;70130;44.534;18.678;2024-01-10T03:15:51;58.67;;;24.97;;
80732;SDS011;70130;44.534;18.678;2024-01-10T03:21:04;63.50;;;24.37;;
80732;SDS011;70130;44.534;18.678;2024-01-10T03:23:32;77.17;;;28.47;;
80732;SDS011;70130;44.534;18.678;2024-01-10T03:26:16;78.03;;;29.93;;
80732;SDS011;70130;44.534;18.678;2024-01-10T03:28:44;77.93;;;31.57;;
80732;SDS011;70130;44.534;18.678;2024-01-10T03:34:03;95.10;;;33.92;;
80732;SDS011;70130;44.534;18.678;2024-01-10T03:36:29;90.90;;;32.37;;
80732;SDS011;70130;44.534;18.678;2024-01-10T03:42:17;78.73;;;29.43;;
80732;SDS011;70130;44.534;18.678;2024-01-10T03:44:46;90.97;;;31.80;;
80732;SDS011;70130;44.534;18.678;2024-01-10T03:47:27;91.20;;;33.67;;
80732;SDS011;70130;44.534;18.678;2024-01-10T03:49:55;88.87;;;35.97;;
80732;SDS011;70130;44.534;18.678;2024-01-10T03:52:39;89.00;;;33.93;;
80732;SDS011;70130;44.534;18.678;2024-01-10T03:55:07;92.60;;;33.17;;
80732;SDS011;70130;44.534;18.678;2024-01-10T03:57:34;83.00;;;31.63;;
80732;SDS011;70130;44.534;18.678;2024-01-10T04:00:02;88.20;;;32.60;;
80732;SDS011;70130;44.534;18.678;2024-01-10T04:02:33;102.47;;;35.25;;
80732;SDS011;70130;44.534;18.678;2024-01-10T04:05:01;78.30;;;31.27;;
80732;SDS011;70130;44.534;18.678;2024-01-10T04:07:30;75.00;;;31.47;;
80732;SDS011;70130;44.534;18.678;2024-01-10T04:09:58;70.17;;;28.03;;
80732;SDS011;70130;44.534;18.678;2024-01-10T04:15:14;58.73;;;25.30;;
80732;SDS011;70130;44.534;18.678;2024-01-10T04:17:43;60.33;;;25.13;;
80732;SDS011;70130;44.534;18.678;2024-01-10T04:20:12;57.70;;;24.73;;
80732;SDS011;70130;44.534;18.678;2024-01-10T04:22:40;58.40;;;24.43;;
80732;SDS011;70130;44.534;18.678;2024-01-10T04:25:08;64.83;;;24.73;;
80732;SDS011;70130;44.534;18.678;2024-01-10T04:30:25;61.13;;;24.40;;
80732;SDS011;70130;44.534;18.678;2024-01-10T04:32:53;61.30;;;25.37;;
80732;SDS011;70130;44.534;18.678;2024-01-10T04:35:22;64.43;;;26.70;;
80732;SDS011;70130;44.534;18.678;2024-01-10T04:37:50;64.37;;;27.23;;
80732;SDS011;70130;44.534;18.678;2024-01-10T04:40:22;60.90;;;26.43;;
80732;SDS011;70130;44.534;18.678;2024-01-10T04:42:50;59.63;;;24.33;;
80732;SDS011;70130;44.534;18.678;2024-01-10T04:45:19;66.97;;;26.13;;
80732;SDS011;70130;44.534;18.678;2024-01-10T04:47:47;63.93;;;26.07;;
80732;SDS011;70130;44.534;18.678;2024-01-10T04:50:16;41.53;;;16.47;;
80732;SDS011;70130;44.534;18.678;2024-01-10T04:52:47;68.73;;;26.90;;
80732;SDS011;70130;44.534;18.678;2024-01-10T04:55:15;61.77;;;25.83;;
80732;SDS011;70130;44.534;18.678;2024-01-10T04:57:44;60.53;;;26.90;;
80732;SDS011;70130;44.534;18.678;2024-01-10T05:00:12;52.70;;;25.07;;
80732;SDS011;70130;44.534;18.678;2024-01-10T05:02:38;61.03;;;27.53;;
80732;SDS011;70130;44.534;18.678;2024-01-10T05:05:13;79.20;;;29.63;;
80732;SDS011;70130;44.534;18.678;2024-01-10T05:07:41;68.63;;;30.00;;
80732;SDS011;70130;44.534;18.678;2024-01-10T05:10:10;73.00;;;29.17;;
80732;SDS011;70130;44.534;18.678;2024-01-10T05:12:35;70.30;;;30.33;;
80732;SDS011;70130;44.534;18.678;2024-01-10T05:15:04;76.70;;;31.40;;
80732;SDS011;70130;44.534;18.678;2024-01-10T05:17:33;67.87;;;29.07;;
80732;SDS011;70130;44.534;18.678;2024-01-10T05:20:07;73.23;;;32.77;;
80732;SDS011;70130;44.534;18.678;2024-01-10T05:22:34;106.23;;;40.27;;
80732;SDS011;70130;44.534;18.678;2024-01-10T05:25:15;80.03;;;31.93;;
80732;SDS011;70130;44.534;18.678;2024-01-10T05:27:43;80.33;;;32.57;;
80732;SDS011;70130;44.534;18.678;2024-01-10T05:30:27;69.87;;;29.77;;
80732;SDS011;70130;44.534;18.678;2024-01-10T05:32:55;74.93;;;31.33;;
80732;SDS011;70130;44.534;18.678;2024-01-10T05:35:24;71.57;;;29.00;;
80732;SDS011;70130;44.534;18.678;2024-01-10T05:38:00;69.53;;;29.52;;
80732;SDS011;70130;44.534;18.678;2024-01-10T05:40:25;69.97;;;29.27;;
80732;SDS011;70130;44.534;18.678;2024-01-10T05:42:55;77.97;;;32.13;;
80732;SDS011;70130;44.534;18.678;2024-01-10T05:45:24;90.40;;;36.70;;
80732;SDS011;70130;44.534;18.678;2024-01-10T05:47:53;82.77;;;35.00;;
80732;SDS011;70130;44.534;18.678;2024-01-10T05:50:22;83.77;;;35.67;;
80732;SDS011;70130;44.534;18.678;2024-01-10T05:52:48;83.13;;;34.07;;
80732;SDS011;70130;44.534;18.678;2024-01-10T05:55:17;96.60;;;36.60;;
80732;SDS011;70130;44.534;18.678;2024-01-10T05:57:54;94.80;;;36.40;;
80732;SDS011;70130;44.534;18.678;2024-01-10T06:00:23;100.87;;;41.50;;
80732;SDS011;70130;44.534;18.678;2024-01-10T06:02:48;110.57;;;43.60;;
80732;SDS011;70130;44.534;18.678;2024-01-10T06:05:17;108.53;;;44.47;;
80732;SDS011;70130;44.534;18.678;2024-01-10T06:08:01;116.53;;;46.27;;
80732;SDS011;70130;44.534;18.678;2024-01-10T06:10:29;131.70;;;50.37;;
80732;SDS011;70130;44.534;18.678;2024-01-10T06:12:55;130.30;;;49.73;;
80732;SDS011;70130;44.534;18.678;2024-01-10T06:15:23;145.73;;;57.33;;
80732;SDS011;70130;44.534;18.678;2024-01-10T06:17:55;113.17;;;49.50;;
80732;SDS011;70130;44.534;18.678;2024-01-10T06:20:32;117.33;;;49.47;;
80732;SDS011;70130;44.534;18.678;2024-01-10T06:23:00;108.00;;;43.92;;
80732;SDS011;70130;44.534;18.678;2024-01-10T06:25:26;118.57;;;47.93;;
80732;SDS011;70130;44.534;18.678;2024-01-10T06:27:58;137.90;;;50.60;;
80732;SDS011;70130;44.534;18.678;2024-01-10T06:30:27;138.30;;;53.90;;
80732;SDS011;70130;44.534;18.678;2024-01-10T06:32:53;144.73;;;60.80;;
80732;SDS011;70130;44.534;18.678;2024-01-10T06:35:37;127.07;;;56.80;;
80732;SDS011;70130;44.534;18.678;2024-01-10T06:38:05;167.27;;;72.43;;
80732;SDS011;70130;44.534;18.678;2024-01-10T06:40:31;164.93;;;71.27;;
80732;SDS011;70130;44.534;18.678;2024-01-10T06:43:06;160.30;;;71.07;;
80732;SDS011;70130;44.534;18.678;2024-01-10T06:45:33;165.63;;;69.17;;
80732;SDS011;70130;44.534;18.678;2024-01-10T06:48:06;135.80;;;59.70;;
80732;SDS011;70130;44.534;18.678;2024-01-10T06:50:34;165.90;;;70.37;;
80732;SDS011;70130;44.534;18.678;2024-01-10T06:53:01;177.07;;;71.83;;
80732;SDS011;70130;44.534;18.678;2024-01-10T06:55:26;200.03;;;76.47;;
80732;SDS011;70130;44.534;18.678;2024-01-10T06:57:54;232.60;;;90.83;;
80732;SDS011;70130;44.534;18.678;2024-01-10T07:00:23;211.43;;;78.40;;
80732;SDS011;70130;44.534;18.678;2024-01-10T07:02:49;183.97;;;80.43;;
80732;SDS011;70130;44.534;18.678;2024-01-10T07:05:15;238.30;;;90.53;;
80732;SDS011;70130;44.534;18.678;2024-01-10T07:07:41;199.90;;;86.10;;
80732;SDS011;70130;44.534;18.678;2024-01-10T07:10:07;169.23;;;71.07;;
80732;SDS011;70130;44.534;18.678;2024-01-10T07:12:33;180.57;;;76.33;;
80732;SDS011;70130;44.534;18.678;2024-01-10T07:14:59;199.43;;;85.97;;
80732;SDS011;70130;44.534;18.678;2024-01-10T07:17:35;217.83;;;84.40;;
80732;SDS011;70130;44.534;18.678;2024-01-10T07:20:01;191.00;;;83.20;;
80732;SDS011;70130;44.534;18.678;2024-01-10T07:22:28;223.90;;;87.80;;
80732;SDS011;70130;44.534;18.678;2024-01-10T07:24:53;220.57;;;87.67;;
80732;SDS011;70130;44.534;18.678;2024-01-10T07:27:19;217.63;;;84.83;;
80732;SDS011;70130;44.534;18.678;2024-01-10T07:29:45;212.93;;;87.10;;
80732;SDS011;70130;44.534;18.678;2024-01-10T07:32:11;210.93;;;89.00;;
80732;SDS011;70130;44.534;18.678;2024-01-10T07:34:40;197.63;;;83.33;;
80732;SDS011;70130;44.534;18.678;2024-01-10T07:37:05;216.87;;;83.80;;
80732;SDS011;70130;44.534;18.678;2024-01-10T07:39:31;221.93;;;82.97;;
80732;SDS011;70130;44.534;18.678;2024-01-10T07:41:57;197.97;;;82.07;;
80732;SDS011;70130;44.534;18.678;2024-01-10T07:44:23;207.20;;;86.30;;
80732;SDS011;70130;44.534;18.678;2024-01-10T07:46:49;203.70;;;87.20;;
80732;SDS011;70130;44.534;18.678;2024-01-10T07:49:19;178.80;;;77.93;;
80732;SDS011;70130;44.534;18.678;2024-01-10T07:51:46;192.77;;;78.33;;
80732;SDS011;70130;44.534;18.678;2024-01-10T07:54:12;203.90;;;83.33;;
80732;SDS011;70130;44.534;18.678;2024-01-10T07:56:38;266.27;;;109.43;;
80732;SDS011;70130;44.534;18.678;2024-01-10T07:59:05;207.83;;;87.83;;
80732;SDS011;70130;44.534;18.678;2024-01-10T08:01:30;207.67;;;87.20;;
80732;SDS011;70130;44.534;18.678;2024-01-10T08:03:56;204.03;;;83.43;;
80732;SDS011;70130;44.534;18.678;2024-01-10T08:06:21;185.03;;;80.43;;
80732;SDS011;70130;44.534;18.678;2024-01-10T08:08:48;168.80;;;78.73;;
80732;SDS011;70130;44.534;18.678;2024-01-10T08:11:13;196.87;;;84.83;;
80732;SDS011;70130;44.534;18.678;2024-01-10T08:13:39;222.77;;;102.30;;
80732;SDS011;70130;44.534;18.678;2024-01-10T08:16:05;192.17;;;81.53;;
80732;SDS011;70130;44.534;18.678;2024-01-10T08:18:34;216.10;;;97.13;;
80732;SDS011;70130;44.534;18.678;2024-01-10T08:21:00;220.17;;;97.63;;
80732;SDS011;70130;44.534;18.678;2024-01-10T08:23:25;153.33;;;73.77;;
80732;SDS011;70130;44.534;18.678;2024-01-10T08:25:51;200.77;;;88.43;;
80732;SDS011;70130;44.534;18.678;2024-01-10T08:28:16;217.13;;;94.13;;
80732;SDS011;70130;44.534;18.678;2024-01-10T08:30:42;201.60;;;89.80;;
80732;SDS011;70130;44.534;18.678;2024-01-10T08:33:07;166.87;;;74.40;;
80732;SDS011;70130;44.534;18.678;2024-01-10T08:35:33;151.27;;;64.37;;
80732;SDS011;70130;44.534;18.678;2024-01-10T08:37:59;169.03;;;71.83;;
80732;SDS011;70130;44.534;18.678;2024-01-10T08:40:24;177.20;;;71.57;;
80732;SDS011;70130;44.534;18.678;2024-01-10T08:42:51;143.80;;;60.03;;
80732;SDS011;70130;44.534;18.678;2024-01-10T08:45:17;155.37;;;58.63;;
80732;SDS011;70130;44.534;18.678;2024-01-10T08:47:43;146.93;;;52.73;;
80732;SDS011;70130;44.534;18.678;2024-01-10T08:50:10;129.53;;;51.67;;
80732;SDS011;70130;44.534;18.678;2024-01-10T08:52:36;162.30;;;59.97;;
80732;SDS011;70130;44.534;18.678;2024-01-10T08:55:05;123.40;;;49.40;;
80732;SDS011;70130;44.534;18.678;2024-01-10T08:57:31;124.17;;;48.33;;
80732;SDS011;70130;44.534;18.678;2024-01-10T08:59:57;102.57;;;36.60;;
80732;SDS011;70130;44.534;18.678;2024-01-10T09:02:22;123.20;;;41.37;;
80732;SDS011;70130;44.534;18.678;2024-01-10T09:04:49;150.03;;;58.90;;
80732;SDS011;70130;44.534;18.678;2024-01-10T09:07:15;139.93;;;51.60;;
80732;SDS011;70130;44.534;18.678;2024-01-10T09:09:42;106.07;;;45.87;;
80732;SDS011;70130;44.534;18.678;2024-01-10T09:12:08;125.40;;;49.10;;
80732;SDS011;70130;44.534;18.678;2024-01-10T09:14:34;165.67;;;69.17;;
80732;SDS011;70130;44.534;18.678;2024-01-10T09:17:00;260.03;;;110.03;;
80732;SDS011;70130;44.534;18.678;2024-01-10T09:19:28;243.33;;;101.50;;
80732;SDS011;70130;44.534;18.678;2024-01-10T09:21:55;220.30;;;87.60;;
80732;SDS011;70130;44.534;18.678;2024-01-10T09:24:22;180.53;;;75.57;;
80732;SDS011;70130;44.534;18.678;2024-01-10T09:26:51;129.23;;;57.20;;
80732;SDS011;70130;44.534;18.678;2024-01-10T09:29:17;126.27;;;47.13;;
80732;SDS011;70130;44.534;18.678;2024-01-10T09:31:42;100.63;;;39.87;;
80732;SDS011;70130;44.534;18.678;2024-01-10T09:34:09;121.07;;;45.33;;
80732;SDS011;70130;44.534;18.678;2024-01-10T09:36:34;96.60;;;38.90;;
80732;SDS011;70130;44.534;18.678;2024-01-10T09:39:00;95.33;;;39.90;;
80732;SDS011;70130;44.534;18.678;2024-01-10T09:41:27;94.77;;;37.63;;
80732;SDS011;70130;44.534;18.678;2024-01-10T09:43:53;117.20;;;42.67;;
80732;SDS011;70130;44.534;18.678;2024-01-10T09:46:37;122.90;;;47.77;;
80732;SDS011;70130;44.534;18.678;2024-01-10T09:49:06;129.47;;;46.63;;
80732;SDS011;70130;44.534;18.678;2024-01-10T09:51:32;131.40;;;49.17;;
80732;SDS011;70130;44.534;18.678;2024-01-10T09:53:58;121.00;;;45.40;;
80732;SDS011;70130;44.534;18.678;2024-01-10T09:56:29;145.07;;;52.50;;
80732;SDS011;70130;44.534;18.678;2024-01-10T09:58:55;148.53;;;52.87;;
80732;SDS011;70130;44.534;18.678;2024-01-10T10:01:23;141.07;;;51.37;;
80732;SDS011;70130;44.534;18.678;2024-01-10T10:03:50;149.67;;;55.40;;
80732;SDS011;70130;44.534;18.678;2024-01-10T10:06:16;135.27;;;49.77;;
80732;SDS011;70130;44.534;18.678;2024-01-10T10:08:41;120.27;;;43.53;;
80732;SDS011;70130;44.534;18.678;2024-01-10T10:11:11;124.40;;;47.37;;
80732;SDS011;70130;44.534;18.678;2024-01-10T10:13:38;131.47;;;49.30;;
80732;SDS011;70130;44.534;18.678;2024-01-10T10:16:07;146.20;;;52.20;;
80732;SDS011;70130;44.534;18.678;2024-01-10T10:18:35;129.97;;;47.80;;
80732;SDS011;70130;44.534;18.678;2024-01-10T10:21:07;138.83;;;53.50;;
80732;SDS011;70130;44.534;18.678;2024-01-10T10:23:43;163.03;;;62.93;;
80732;SDS011;70130;44.534;18.678;2024-01-10T10:26:22;142.30;;;56.43;;
80732;SDS011;70130;44.534;18.678;2024-01-10T10:28:49;169.30;;;66.63;;
80732;SDS011;70130;44.534;18.678;2024-01-10T10:31:16;166.47;;;62.00;;
80732;SDS011;70130;44.534;18.678;2024-01-10T10:33:44;156.53;;;61.50;;
80732;SDS011;70130;44.534;18.678;2024-01-10T10:36:10;154.33;;;62.83;;
80732;SDS011;70130;44.534;18.678;2024-01-10T10:38:36;166.87;;;63.20;;
80732;SDS011;70130;44.534;18.678;2024-01-10T10:41:05;146.93;;;60.13;;
80732;SDS011;70130;44.534;18.678;2024-01-10T10:46:03;141.80;;;55.83;;
80732;SDS011;70130;44.534;18.678;2024-01-10T10:48:34;130.07;;;50.97;;
80732;SDS011;70130;44.534;18.678;2024-01-10T10:53:31;90.72;;;34.85;;
80732;SDS011;70130;44.534;18.678;2024-01-10T10:56:00;130.93;;;51.77;;
80732;SDS011;70130;44.534;18.678;2024-01-10T10:58:28;75.90;;;32.00;;
80732;SDS011;70130;44.534;18.678;2024-01-10T11:00:56;67.13;;;33.67;;
80732;SDS011;70130;44.534;18.678;2024-01-10T11:03:23;124.97;;;48.67;;
80732;SDS011;70130;44.534;18.678;2024-01-10T11:05:51;148.83;;;57.17;;
80732;SDS011;70130;44.534;18.678;2024-01-10T11:08:17;136.37;;;59.17;;
80732;SDS011;70130;44.534;18.678;2024-01-10T11:10:45;129.80;;;55.80;;
80732;SDS011;70130;44.534;18.678;2024-01-10T11:13:27;128.23;;;52.10;;
80732;SDS011;70130;44.534;18.678;2024-01-10T11:24:24;145.13;;;61.63;;
80732;SDS011;70130;44.534;18.678;2024-01-10T11:26:50;144.43;;;56.73;;
80732;SDS011;70130;44.534;18.678;2024-01-10T11:29:16;148.00;;;58.90;;
80732;SDS011;70130;44.534;18.678;2024-01-10T11:31:41;160.80;;;64.87;;
80732;SDS011;70130;44.534;18.678;2024-01-10T11:34:16;135.07;;;57.93;;
80732;SDS011;70130;44.534;18.678;2024-01-10T11:36:49;124.50;;;52.40;;
80732;SDS011;70130;44.534;18.678;2024-01-10T11:39:40;140.00;;;61.03;;
80732;SDS011;70130;44.534;18.678;2024-01-10T11:42:07;142.43;;;59.40;;
80732;SDS011;70130;44.534;18.678;2024-01-10T11:44:34;138.07;;;59.37;;
80732;SDS011;70130;44.534;18.678;2024-01-10T11:47:13;135.17;;;52.53;;
80732;SDS011;70130;44.534;18.678;2024-01-10T11:49:40;146.80;;;63.23;;
80732;SDS011;70130;44.534;18.678;2024-01-10T11:52:06;123.47;;;48.43;;
80732;SDS011;70130;44.534;18.678;2024-01-10T11:54:35;133.30;;;50.80;;
80732;SDS011;70130;44.534;18.678;2024-01-10T11:59:38;121.33;;;48.50;;
80732;SDS011;70130;44.534;18.678;2024-01-10T12:02:06;140.93;;;61.83;;
80732;SDS011;70130;44.534;18.678;2024-01-10T12:04:32;138.33;;;54.97;;
80732;SDS011;70130;44.534;18.678;2024-01-10T12:06:57;131.20;;;50.70;;
80732;SDS011;70130;44.534;18.678;2024-01-10T12:09:23;120.57;;;50.33;;
80732;SDS011;70130;44.534;18.678;2024-01-10T12:11:50;191.20;;;78.50;;
80732;SDS011;70130;44.534;18.678;2024-01-10T12:14:15;198.57;;;86.03;;
80732;SDS011;70130;44.534;18.678;2024-01-10T12:16:42;176.43;;;75.87;;
80732;SDS011;70130;44.534;18.678;2024-01-10T12:19:08;193.53;;;81.03;;
80732;SDS011;70130;44.534;18.678;2024-01-10T12:21:34;217.10;;;84.43;;
80732;SDS011;70130;44.534;18.678;2024-01-10T12:23:59;197.73;;;78.73;;
80732;SDS011;70130;44.534;18.678;2024-01-10T12:26:25;200.80;;;74.83;;
80732;SDS011;70130;44.534;18.678;2024-01-10T12:28:54;237.67;;;86.97;;
80732;SDS011;70130;44.534;18.678;2024-01-10T12:31:20;183.43;;;71.17;;
80732;SDS011;70130;44.534;18.678;2024-01-10T12:33:48;203.43;;;74.47;;
80732;SDS011;70130;44.534;18.678;2024-01-10T12:36:14;182.43;;;70.63;;
80732;SDS011;70130;44.534;18.678;2024-01-10T12:38:42;159.70;;;58.83;;
80732;SDS011;70130;44.534;18.678;2024-01-10T12:41:08;178.73;;;66.17;;
80732;SDS011;70130;44.534;18.678;2024-01-10T12:43:34;195.73;;;70.30;;
80732;SDS011;70130;44.534;18.678;2024-01-10T12:46:10;184.47;;;65.30;;
80732;SDS011;70130;44.534;18.678;2024-01-10T12:48:36;178.27;;;67.77;;
80732;SDS011;70130;44.534;18.678;2024-01-10T12:51:04;217.53;;;77.67;;
80732;SDS011;70130;44.534;18.678;2024-01-10T12:53:36;203.03;;;76.17;;
80732;SDS011;70130;44.534;18.678;2024-01-10T12:56:03;227.07;;;85.70;;
80732;SDS011;70130;44.534;18.678;2024-01-10T12:58:30;180.37;;;72.67;;
80732;SDS011;70130;44.534;18.678;2024-01-10T13:00:56;235.40;;;84.30;;
80732;SDS011;70130;44.534;18.678;2024-01-10T13:03:22;249.87;;;93.20;;
80732;SDS011;70130;44.534;18.678;2024-01-10T13:05:49;255.03;;;91.60;;
80732;SDS011;70130;44.534;18.678;2024-01-10T13:08:15;288.37;;;105.73;;
80732;SDS011;70130;44.534;18.678;2024-01-10T13:10:41;289.23;;;102.60;;
80732;SDS011;70130;44.534;18.678;2024-01-10T13:13:07;310.70;;;108.00;;
80732;SDS011;70130;44.534;18.678;2024-01-10T13:15:32;308.70;;;105.13;;
80732;SDS011;70130;44.534;18.678;2024-01-10T13:17:58;360.10;;;120.40;;
80732;SDS011;70130;44.534;18.678;2024-01-10T13:20:24;389.80;;;128.17;;
80732;SDS011;70130;44.534;18.678;2024-01-10T13:22:53;317.43;;;116.23;;
80732;SDS011;70130;44.534;18.678;2024-01-10T13:25:18;288.70;;;103.27;;
80732;SDS011;70130;44.534;18.678;2024-01-10T13:27:50;302.73;;;104.37;;
80732;SDS011;70130;44.534;18.678;2024-01-10T13:30:16;307.40;;;101.70;;
80732;SDS011;70130;44.534;18.678;2024-01-10T13:32:43;284.33;;;95.23;;
80732;SDS011;70130;44.534;18.678;2024-01-10T13:35:09;296.90;;;94.57;;
80732;SDS011;70130;44.534;18.678;2024-01-10T13:37:34;226.90;;;77.93;;
80732;SDS011;70130;44.534;18.678;2024-01-10T13:40:01;270.87;;;88.93;;
80732;SDS011;70130;44.534;18.678;2024-01-10T13:42:31;253.32;;;84.40;;
80732;SDS011;70130;44.534;18.678;2024-01-10T13:44:58;252.80;;;82.17;;
80732;SDS011;70130;44.534;18.678;2024-01-10T13:47:23;243.37;;;83.67;;
80732;SDS011;70130;44.534;18.678;2024-01-10T13:49:49;224.87;;;76.03;;
80732;SDS011;70130;44.534;18.678;2024-01-10T13:52:14;220.53;;;75.57;;
80732;SDS011;70130;44.534;18.678;2024-01-10T13:54:40;237.60;;;77.30;;
80732;SDS011;70130;44.534;18.678;2024-01-10T13:57:07;207.53;;;72.90;;
80732;SDS011;70130;44.534;18.678;2024-01-10T13:59:33;226.13;;;75.93;;
80732;SDS011;70130;44.534;18.678;2024-01-10T14:01:58;224.63;;;74.90;;
80732;SDS011;70130;44.534;18.678;2024-01-10T14:04:24;235.50;;;79.00;;
80732;SDS011;70130;44.534;18.678;2024-01-10T14:06:50;247.37;;;81.77;;
80732;SDS011;70130;44.534;18.678;2024-01-10T14:09:16;208.00;;;75.80;;
80732;SDS011;70130;44.534;18.678;2024-01-10T14:11:43;213.00;;;75.67;;
80732;SDS011;70130;44.534;18.678;2024-01-10T14:14:15;232.10;;;74.07;;
80732;SDS011;70130;44.534;18.678;2024-01-10T14:16:41;212.73;;;71.20;;
80732;SDS011;70130;44.534;18.678;2024-01-10T14:19:07;214.07;;;69.90;;
80732;SDS011;70130;44.534;18.678;2024-01-10T14:21:32;215.27;;;73.50;;
80732;SDS011;70130;44.534;18.678;2024-01-10T14:23:59;235.63;;;75.33;;
80732;SDS011;70130;44.534;18.678;2024-01-10T14:26:24;231.60;;;75.17;;
80732;SDS011;70130;44.534;18.678;2024-01-10T14:28:51;239.93;;;76.70;;
80732;SDS011;70130;44.534;18.678;2024-01-10T14:31:20;201.30;;;63.90;;
80732;SDS011;70130;44.534;18.678;2024-01-10T14:33:46;197.40;;;67.33;;
80732;SDS011;70130;44.534;18.678;2024-01-10T14:36:12;228.23;;;69.53;;
80732;SDS011;70130;44.534;18.678;2024-01-10T14:38:38;216.10;;;71.20;;
80732;SDS011;70130;44.534;18.678;2024-01-10T14:41:05;205.43;;;65.40;;
80732;SDS011;70130;44.534;18.678;2024-01-10T14:43:31;192.20;;;67.80;;
80732;SDS011;70130;44.534;18.678;2024-01-10T14:45:57;201.10;;;65.00;;